Bordeaux, Wyoming
Current Conditions -  °F | °C
As of 6:35 AM on Saturday 25 Oct 2014 (Local Time) from KGUR Reporting Station
Clear Clear  
Wind Chill: 34°   Ceiling: Unl
Heat Index: 39°   Visibility: 10mi
Dew Point: 35°   Wind: 7mph
Humidity: 83%   Direction: 120°ESE
Pressure: 30.18"   Gusts: NA
Location:  42.0178°N, 105.098°W
Report Text: KGUR 251235Z AUTO 12006KT 10SM CLR 04/01 A3018 RMK AO2 T00410014 PWINO
Loading
Personal Weather Stations






























Interactive Weather Map
Tropical Storm Tracking
New forecast layout! Learn more

10-Day Weather Forecast

Advertisements
Track Severe Weather on mobile